createdAt,value
2018-05-29T00:01:09.269Z,17.41
2018-05-29T00:03:38.521Z,17.45
2018-05-29T00:06:07.029Z,17.41
2018-05-29T00:08:36.249Z,17.25
2018-05-29T00:11:05.670Z,17.19
2018-05-29T00:13:34.112Z,17.26
2018-05-29T00:16:04.077Z,17.37
2018-05-29T00:18:32.717Z,17.38
2018-05-29T00:21:01.172Z,17.41
2018-05-29T00:23:29.620Z,17.28
2018-05-29T00:25:58.112Z,17.11
2018-05-29T00:28:26.552Z,16.99
2018-05-29T00:30:55.000Z,16.96
2018-05-29T00:33:23.486Z,17.13
2018-05-29T00:35:51.929Z,17.25
2018-05-29T00:38:21.137Z,17.41
2018-05-29T00:40:49.644Z,17.40
2018-05-29T00:43:18.084Z,17.41
2018-05-29T00:45:46.527Z,17.34
2018-05-29T00:48:15.016Z,17.31
2018-05-29T00:50:43.453Z,17.35
2018-05-29T00:53:12.649Z,17.28
2018-05-29T00:55:41.901Z,17.15
2018-05-29T00:58:10.340Z,17.17
2018-05-29T01:00:38.809Z,17.15
2018-05-29T01:03:08.073Z,17.32
2018-05-29T01:05:36.578Z,17.35
2018-05-29T01:10:39.058Z,17.40
2018-05-29T01:13:08.333Z,17.48
2018-05-29T01:15:36.834Z,17.48
2018-05-29T01:18:05.684Z,17.51
2018-05-29T01:20:34.257Z,17.48
2018-05-29T01:23:02.766Z,17.44
2018-05-29T01:25:31.481Z,17.29
2018-05-29T01:28:00.766Z,17.18
2018-05-29T01:30:29.270Z,17.16
2018-05-29T01:32:58.585Z,17.17
2018-05-29T01:35:27.862Z,17.04
2018-05-29T01:37:56.362Z,17.06
2018-05-29T01:40:25.677Z,17.08
2018-05-29T01:42:54.178Z,16.97
2018-05-29T01:45:22.682Z,16.85
2018-05-29T01:47:51.394Z,16.96
2018-05-29T01:50:20.661Z,17.04
2018-05-29T01:52:49.416Z,17.08
2018-05-29T01:55:17.958Z,17.27
2018-05-29T01:57:46.482Z,17.33
2018-05-29T02:00:15.045Z,17.44
2018-05-29T02:02:45.674Z,17.23
2018-05-29T02:05:14.950Z,17.00
2018-05-29T02:07:43.457Z,16.80
2018-05-29T02:10:12.789Z,16.68
2018-05-29T02:12:41.286Z,16.64
2018-05-29T02:15:09.790Z,16.68
2018-05-29T02:17:38.698Z,16.61
2018-05-29T02:20:07.241Z,16.53
2018-05-29T02:22:35.734Z,16.68
2018-05-29T02:25:04.782Z,17.01
2018-05-29T02:27:34.122Z,17.05
2018-05-29T02:30:02.631Z,16.92
2018-05-29T02:32:31.192Z,16.92
2018-05-29T02:34:59.693Z,16.75
2018-05-29T02:37:28.201Z,16.75
2018-05-29T02:39:57.513Z,16.60
2018-05-29T02:42:26.010Z,16.72
2018-05-29T02:44:54.569Z,16.73
2018-05-29T02:47:24.054Z,16.70
2018-05-29T02:49:53.334Z,16.61
2018-05-29T02:52:21.846Z,16.65
2018-05-29T02:54:51.845Z,16.70
2018-05-29T02:57:21.114Z,16.64
2018-05-29T02:59:49.622Z,16.71
2018-05-29T03:02:18.165Z,16.69
2018-05-29T03:04:46.661Z,16.87
2018-05-29T03:07:15.167Z,16.97
2018-05-29T03:09:44.494Z,16.82
2018-05-29T03:12:12.995Z,16.82
2018-05-29T03:14:41.506Z,16.88
2018-05-29T03:17:11.730Z,16.97
2018-05-29T03:19:40.998Z,17.00
2018-05-29T03:22:10.344Z,17.15
2018-05-29T03:24:39.308Z,17.08
2018-05-29T03:27:08.571Z,17.03
2018-05-29T03:29:37.082Z,17.02
2018-05-29T03:32:05.866Z,16.85
2018-05-29T03:34:34.370Z,16.82
2018-05-29T03:37:02.869Z,16.75
2018-05-29T03:39:31.422Z,16.76
2018-05-29T03:41:59.918Z,16.87
2018-05-29T03:44:28.414Z,17.09
2018-05-29T03:46:57.122Z,17.04
2018-05-29T03:49:26.394Z,17.14
2018-05-29T03:51:54.893Z,17.09
2018-05-29T03:54:23.448Z,17.32
2018-05-29T03:56:51.945Z,17.21
2018-05-29T03:59:20.446Z,17.17
2018-05-29T04:01:52.333Z,17.30
2018-05-29T04:04:21.857Z,17.53
2018-05-29T04:06:50.361Z,17.67
2018-05-29T04:09:18.942Z,18.03
2018-05-29T04:11:47.524Z,18.09
2018-05-29T04:14:16.023Z,18.48
2018-05-29T04:16:44.838Z,18.74
2018-05-29T04:19:14.102Z,18.77
2018-05-29T04:21:42.619Z,18.85
2018-05-29T04:24:11.510Z,19.11
2018-05-29T04:26:40.025Z,19.24
2018-05-29T04:29:08.599Z,19.29
2018-05-29T04:31:37.169Z,19.49
2018-05-29T04:34:05.735Z,19.55
2018-05-29T04:36:35.002Z,19.74
2018-05-29T04:39:03.901Z,19.98
2018-05-29T04:41:32.410Z,20.24
2018-05-29T04:44:00.920Z,20.37
2018-05-29T04:46:29.817Z,20.63
2018-05-29T04:48:58.343Z,20.94
2018-05-29T04:51:26.846Z,21.21
2018-05-29T04:53:55.401Z,21.26
2018-05-29T04:56:23.898Z,21.78
2018-05-29T04:58:53.169Z,21.78
2018-05-29T05:01:22.497Z,21.99
2018-05-29T05:03:51.773Z,21.87
2018-05-29T05:06:20.290Z,21.93
2018-05-29T05:08:49.092Z,22.43
2018-05-29T05:11:18.349Z,23.22
2018-05-29T05:13:46.850Z,23.41
2018-05-29T05:16:17.086Z,23.55
2018-05-29T05:18:46.362Z,23.60
2018-05-29T05:21:14.862Z,23.73
2018-05-29T05:23:43.414Z,23.41
2018-05-29T05:26:11.921Z,23.63
2018-05-29T05:28:40.430Z,23.32
2018-05-29T05:31:10.326Z,23.72
2018-05-29T05:33:39.589Z,23.93
2018-05-29T05:36:08.087Z,24.02
2018-05-29T05:38:36.727Z,24.30
2018-05-29T05:41:05.246Z,24.58
2018-05-29T05:43:33.792Z,23.90
2018-05-29T05:46:02.352Z,23.73
2018-05-29T05:48:31.613Z,23.38
2018-05-29T05:51:00.134Z,23.73
2018-05-29T05:53:29.726Z,23.73
2018-05-29T05:55:59.023Z,23.62
2018-05-29T05:58:28.348Z,23.68
2018-05-29T06:00:57.650Z,23.57
2018-05-29T06:03:26.142Z,23.49
2018-05-29T06:05:54.651Z,23.31
2018-05-29T06:08:23.378Z,23.32
2018-05-29T06:10:52.642Z,23.47
2018-05-29T06:13:21.133Z,23.40
2018-05-29T06:15:49.686Z,23.66
2018-05-29T06:18:18.177Z,23.69
2018-05-29T06:20:46.686Z,23.81
2018-05-29T06:23:15.244Z,23.80
2018-05-29T06:25:43.751Z,24.08
2018-05-29T06:28:12.266Z,24.37
2018-05-29T06:30:41.550Z,24.58
2018-05-29T06:33:10.810Z,25.08
2018-05-29T06:35:39.314Z,25.24
2018-05-29T06:38:08.263Z,25.29
2018-05-29T06:40:36.766Z,25.15
2018-05-29T06:43:05.322Z,25.49
2018-05-29T06:45:33.862Z,26.34
2018-05-29T06:48:02.362Z,27.13
2018-05-29T06:50:32.502Z,27.12
2018-05-29T06:53:01.254Z,27.49
2018-05-29T06:55:31.270Z,27.44
2018-05-29T06:57:59.770Z,27.52
2018-05-29T07:00:29.073Z,27.63
2018-05-29T07:02:58.338Z,27.88
2018-05-29T07:05:27.605Z,28.09
2018-05-29T07:07:56.150Z,27.56
2018-05-29T07:10:25.414Z,28.14
2018-05-29T07:12:53.934Z,28.56
2018-05-29T07:15:23.246Z,28.85
2018-05-29T07:17:51.745Z,28.95
2018-05-29T07:20:20.242Z,29.33
2018-05-29T07:22:48.790Z,29.96
2018-05-29T07:25:17.297Z,29.54
2018-05-29T07:27:45.791Z,29.47
2018-05-29T07:30:14.504Z,29.45
2018-05-29T07:32:43.007Z,29.37
2018-05-29T07:35:11.505Z,29.73
2018-05-29T07:37:40.254Z,29.92
2018-05-29T07:40:08.754Z,30.09
2018-05-29T07:42:38.010Z,29.97
2018-05-29T07:45:06.693Z,30.26
2018-05-29T07:47:35.193Z,30.53
2018-05-29T07:50:03.764Z,31.01
2018-05-29T07:52:32.585Z,30.83
2018-05-29T07:55:01.861Z,31.11
2018-05-29T07:57:30.378Z,31.30
2018-05-29T07:59:59.794Z,31.45
2018-05-29T08:02:28.293Z,31.07
2018-05-29T08:04:56.790Z,31.26
2018-05-29T08:07:25.361Z,31.34
2018-05-29T08:09:53.861Z,31.90
2018-05-29T08:12:22.398Z,31.54
2018-05-29T08:14:51.051Z,32.03
2018-05-29T08:17:19.562Z,31.93
2018-05-29T08:19:48.097Z,32.58
2018-05-29T08:22:16.642Z,32.33
2018-05-29T08:24:45.141Z,32.37
2018-05-29T08:27:13.638Z,31.66
2018-05-29T08:29:42.497Z,31.52
2018-05-29T08:32:11.266Z,31.49
2018-05-29T08:34:40.534Z,31.81
2018-05-29T08:37:09.074Z,31.93
2018-05-29T08:39:37.569Z,32.00
2018-05-29T08:42:06.107Z,32.10
2018-05-29T08:44:35.434Z,31.81
2018-05-29T08:47:03.929Z,31.64
2018-05-29T08:49:32.422Z,32.35
2018-05-29T08:52:00.974Z,32.69
2018-05-29T08:54:29.481Z,32.33
2018-05-29T08:56:57.986Z,33.00
2018-05-29T08:59:26.677Z,33.29
2018-05-29T09:01:55.942Z,33.14
2018-05-29T09:04:24.475Z,33.61
2018-05-29T09:06:53.242Z,33.23
2018-05-29T09:09:22.534Z,33.70
2018-05-29T09:11:51.888Z,34.22
2018-05-29T09:14:21.249Z,34.51
2018-05-29T09:16:49.770Z,33.10
2018-05-29T09:19:18.290Z,32.64
2018-05-29T09:21:47.630Z,32.48
2018-05-29T09:24:16.890Z,32.57
2018-05-29T09:26:45.386Z,32.50
2018-05-29T09:29:14.998Z,32.95
2018-05-29T09:31:44.294Z,34.23
2018-05-29T09:34:13.578Z,35.28
2018-05-29T09:36:42.286Z,35.51
2018-05-29T09:39:11.618Z,35.18
2018-05-29T09:41:40.142Z,35.49
2018-05-29T09:44:08.722Z,34.96
2018-05-29T09:46:37.254Z,34.74
2018-05-29T09:49:05.785Z,34.04
2018-05-29T09:51:34.374Z,33.86
2018-05-29T09:54:03.674Z,34.36
2018-05-29T09:56:32.206Z,35.75
2018-05-29T09:59:00.974Z,33.64
2018-05-29T10:01:29.498Z,33.90
2018-05-29T10:03:58.038Z,35.38
2018-05-29T10:06:27.030Z,34.84
2018-05-29T10:08:55.549Z,34.94
2018-05-29T10:11:24.073Z,35.68
2018-05-29T10:13:53.798Z,35.10
2018-05-29T10:16:23.090Z,34.10
2018-05-29T10:18:52.378Z,34.72
2018-05-29T10:21:20.958Z,34.66
2018-05-29T10:23:49.478Z,33.76
2018-05-29T10:26:18.027Z,33.21
2018-05-29T10:28:47.369Z,35.04
2018-05-29T10:31:15.896Z,35.29
2018-05-29T10:33:44.418Z,36.21
2018-05-29T10:36:12.997Z,35.68
2018-05-29T10:38:41.517Z,34.96
2018-05-29T10:41:10.062Z,34.31
2018-05-29T10:43:38.849Z,35.20
2018-05-29T10:46:07.451Z,35.25
2018-05-29T10:48:35.946Z,36.07
2018-05-29T10:51:04.529Z,36.13
2018-05-29T10:53:33.050Z,36.34
2018-05-29T10:56:01.570Z,35.24
2018-05-29T10:58:30.172Z,36.27
2018-05-29T11:00:58.714Z,35.50
2018-05-29T11:03:28.010Z,36.02
2018-05-29T11:05:57.482Z,36.76
2018-05-29T11:08:25.997Z,37.34
2018-05-29T11:10:55.335Z,36.94
2018-05-29T11:13:23.918Z,37.65
2018-05-29T11:15:52.442Z,35.19
2018-05-29T11:18:20.977Z,35.07
2018-05-29T11:20:49.554Z,34.85
2018-05-29T11:23:18.086Z,35.36
2018-05-29T11:25:47.366Z,35.39
2018-05-29T11:28:17.170Z,34.83
2018-05-29T11:30:45.697Z,34.98
2018-05-29T11:33:15.046Z,34.95
2018-05-29T11:35:43.629Z,36.24
2018-05-29T11:38:12.142Z,35.83
2018-05-29T11:40:40.685Z,36.23
2018-05-29T11:43:09.456Z,37.10
2018-05-29T11:45:38.102Z,37.10
2018-05-29T11:48:06.691Z,37.18
2018-05-29T11:50:36.397Z,35.70
2018-05-29T11:53:06.003Z,35.11
2018-05-29T11:55:34.676Z,36.38
2018-05-29T11:58:04.534Z,36.33
2018-05-29T12:00:33.145Z,36.61
2018-05-29T12:03:01.670Z,37.37
2018-05-29T12:05:30.494Z,37.19
2018-05-29T12:07:59.777Z,35.79
2018-05-29T12:10:29.073Z,35.23
2018-05-29T12:12:57.713Z,35.54
2018-05-29T12:15:26.230Z,36.34
2018-05-29T12:17:55.527Z,37.17
2018-05-29T12:20:24.294Z,36.95
2018-05-29T12:22:52.815Z,35.79
2018-05-29T12:25:22.106Z,34.69
2018-05-29T12:27:50.910Z,35.37
2018-05-29T12:30:20.198Z,36.10
2018-05-29T12:32:49.747Z,36.95
2018-05-29T12:35:18.373Z,35.57
2018-05-29T12:37:46.899Z,36.50
2018-05-29T12:40:15.426Z,36.27
2018-05-29T12:42:44.090Z,36.74
2018-05-29T12:45:12.611Z,36.04
2018-05-29T12:47:41.939Z,36.51
2018-05-29T12:50:10.711Z,36.52
2018-05-29T12:52:40.084Z,35.45
2018-05-29T12:55:08.742Z,33.82
2018-05-29T12:57:37.443Z,35.71
2018-05-29T13:00:06.061Z,36.44
2018-05-29T13:02:35.395Z,37.00
2018-05-29T13:05:04.148Z,35.44
2018-05-29T13:07:32.721Z,36.19
2018-05-29T13:10:01.299Z,35.77
2018-05-29T13:12:29.983Z,36.14
2018-05-29T13:14:58.551Z,35.20
2018-05-29T13:17:27.285Z,35.41
2018-05-29T13:19:55.932Z,35.00
2018-05-29T13:22:24.466Z,34.86
2018-05-29T13:24:52.994Z,35.34
2018-05-29T13:27:22.033Z,35.51
2018-05-29T13:29:50.561Z,34.98
2018-05-29T13:32:19.094Z,35.28
2018-05-29T13:34:47.781Z,35.96
2018-05-29T13:37:16.330Z,35.98
2018-05-29T13:39:44.845Z,36.11
2018-05-29T13:42:14.350Z,35.49
2018-05-29T13:44:42.979Z,35.81
2018-05-29T13:47:11.510Z,34.96
2018-05-29T13:49:42.517Z,34.31
2018-05-29T13:52:11.046Z,35.46
2018-05-29T13:54:39.679Z,35.62
2018-05-29T13:57:08.378Z,35.94
2018-05-29T13:59:36.937Z,35.74
2018-05-29T14:02:05.489Z,35.47
2018-05-29T14:04:34.054Z,34.79
2018-05-29T14:07:02.585Z,34.01
2018-05-29T14:09:31.102Z,33.92
2018-05-29T14:12:00.435Z,34.63
2018-05-29T14:14:29.109Z,34.60
2018-05-29T14:16:57.654Z,34.22
2018-05-29T14:19:26.227Z,34.33
2018-05-29T14:21:55.023Z,34.79
2018-05-29T14:24:24.310Z,34.84
2018-05-29T14:26:52.879Z,34.87
2018-05-29T14:29:21.479Z,33.94
2018-05-29T14:31:50.073Z,34.30
2018-05-29T14:34:19.335Z,34.73
2018-05-29T14:36:48.065Z,34.93
2018-05-29T14:39:17.366Z,34.93
2018-05-29T14:41:46.241Z,34.36
2018-05-29T14:44:14.799Z,33.47
2018-05-29T14:46:43.317Z,33.34
2018-05-29T14:49:12.131Z,33.61
2018-05-29T14:51:41.417Z,33.52
2018-05-29T14:54:10.700Z,33.38
2018-05-29T14:56:40.306Z,33.68
2018-05-29T14:59:09.617Z,33.74
2018-05-29T15:01:38.392Z,33.64
2018-05-29T15:04:06.958Z,33.55
2018-05-29T15:06:35.486Z,33.64
2018-05-29T15:09:04.176Z,33.94
2018-05-29T15:11:33.062Z,33.47
2018-05-29T15:14:02.354Z,33.38
2018-05-29T15:16:31.650Z,33.34
2018-05-29T15:19:01.383Z,32.95
2018-05-29T15:21:31.549Z,32.37
2018-05-29T15:24:00.248Z,32.51
2018-05-29T15:26:28.837Z,32.26
2018-05-29T15:28:57.365Z,32.70
2018-05-29T15:31:26.711Z,32.63
2018-05-29T15:33:55.393Z,32.75
2018-05-29T15:36:24.039Z,32.82
2018-05-29T15:38:52.668Z,32.18
2018-05-29T15:41:21.535Z,32.19
2018-05-29T15:43:50.141Z,32.01
2018-05-29T15:46:18.658Z,31.68
2018-05-29T15:48:47.806Z,31.78
2018-05-29T15:51:16.402Z,31.20
2018-05-29T15:53:45.186Z,31.25
2018-05-29T15:56:13.933Z,31.14
2018-05-29T15:58:42.461Z,30.67
2018-05-29T16:01:11.045Z,30.60
2018-05-29T16:03:40.238Z,30.63
2018-05-29T16:06:08.922Z,30.32
2018-05-29T16:08:37.435Z,30.68
2018-05-29T16:11:06.286Z,30.37
2018-05-29T16:13:34.786Z,30.19
2018-05-29T16:16:03.379Z,30.01
2018-05-29T16:18:32.190Z,30.21
2018-05-29T16:21:01.466Z,29.97
2018-05-29T16:23:29.970Z,30.17
2018-05-29T16:25:59.382Z,29.87
2018-05-29T16:28:28.798Z,29.45
2018-05-29T16:30:57.424Z,29.25
2018-05-29T16:33:26.141Z,29.32
2018-05-29T16:35:54.642Z,29.24
2018-05-29T16:38:23.142Z,28.80
2018-05-29T16:40:51.693Z,28.65
2018-05-29T16:43:20.961Z,28.59
2018-05-29T16:45:49.486Z,28.74
2018-05-29T16:48:18.975Z,28.56
2018-05-29T16:50:48.247Z,28.35
2018-05-29T16:53:16.820Z,28.49
2018-05-29T16:55:45.470Z,28.04
2018-05-29T16:58:14.577Z,27.99
2018-05-29T17:00:43.145Z,27.72
2018-05-29T17:03:11.682Z,27.67
2018-05-29T17:05:40.186Z,27.56
2018-05-29T17:08:08.934Z,27.52
2018-05-29T17:10:37.621Z,27.39
2018-05-29T17:13:06.300Z,27.07
2018-05-29T17:15:35.188Z,27.08
2018-05-29T17:18:04.796Z,26.96
2018-05-29T17:20:33.590Z,26.98
2018-05-29T17:23:03.811Z,26.95
2018-05-29T17:25:34.034Z,26.86
2018-05-29T17:28:03.740Z,26.57
2018-05-29T17:30:32.524Z,26.47
2018-05-29T17:33:01.283Z,26.27
2018-05-29T17:35:29.924Z,26.12
2018-05-29T17:37:58.483Z,26.03
2018-05-29T17:40:27.069Z,25.95
2018-05-29T17:42:55.822Z,25.86
2018-05-29T17:45:24.637Z,25.69
2018-05-29T17:47:53.432Z,25.52
2018-05-29T17:50:22.052Z,25.32
2018-05-29T17:52:51.417Z,25.25
2018-05-29T17:55:20.643Z,25.13
2018-05-29T17:57:49.328Z,25.08
2018-05-29T18:00:17.966Z,25.00
2018-05-29T18:02:46.677Z,24.82
2018-05-29T18:05:15.251Z,24.67
2018-05-29T18:07:43.820Z,24.52
2018-05-29T18:10:12.831Z,24.41
2018-05-29T18:12:42.861Z,24.33
2018-05-29T18:15:11.585Z,24.28
2018-05-29T18:17:40.218Z,24.15
2018-05-29T18:20:08.773Z,24.20
2018-05-29T18:22:37.487Z,24.13
2018-05-29T18:25:06.085Z,24.23
2018-05-29T18:27:34.605Z,24.19
2018-05-29T18:30:03.982Z,24.14
2018-05-29T18:32:33.482Z,24.11
2018-05-29T18:35:02.145Z,24.17
2018-05-29T18:37:30.794Z,24.11
2018-05-29T18:39:59.668Z,23.98
2018-05-29T18:42:29.321Z,24.00
2018-05-29T18:44:57.842Z,24.00
2018-05-29T18:47:26.946Z,23.90
2018-05-29T18:49:56.341Z,23.89
2018-05-29T18:52:25.630Z,23.93
2018-05-29T18:54:54.235Z,23.95
2018-05-29T18:57:23.718Z,23.91
2018-05-29T18:59:53.519Z,23.92
2018-05-29T19:02:23.406Z,23.91
2018-05-29T19:04:52.183Z,24.00
2018-05-29T19:07:20.992Z,24.00
2018-05-29T19:09:49.992Z,23.93
2018-05-29T19:12:19.629Z,23.85
2018-05-29T19:14:49.199Z,23.51
2018-05-29T19:17:18.905Z,23.45
2018-05-29T19:19:48.314Z,23.48
2018-05-29T19:22:17.100Z,23.43
2018-05-29T19:24:45.845Z,23.48
2018-05-29T19:27:14.678Z,23.47
2018-05-29T19:29:43.363Z,23.55
2018-05-29T19:32:12.555Z,23.38
2018-05-29T19:34:41.339Z,23.45
2018-05-29T19:37:10.061Z,23.30
2018-05-29T19:39:39.580Z,23.26
2018-05-29T19:42:09.068Z,23.13
2018-05-29T19:44:39.716Z,23.16
2018-05-29T19:47:08.487Z,23.03
2018-05-29T19:49:37.127Z,23.06
2018-05-29T19:52:05.933Z,23.12
2018-05-29T19:54:34.451Z,23.23
2018-05-29T19:57:03.205Z,23.40
2018-05-29T19:59:31.923Z,23.44
2018-05-29T20:02:00.576Z,23.47
2018-05-29T20:04:29.246Z,23.35
2018-05-29T20:06:58.226Z,23.36
2018-05-29T20:09:26.941Z,23.31
2018-05-29T20:11:55.502Z,23.22
2018-05-29T20:14:24.387Z,23.10
2018-05-29T20:16:52.898Z,22.93
2018-05-29T20:19:21.405Z,22.79
2018-05-29T20:21:49.983Z,22.71
2018-05-29T20:24:18.493Z,22.66
2018-05-29T20:26:47.766Z,22.74
2018-05-29T20:29:16.595Z,22.89
2018-05-29T20:31:45.093Z,23.08
2018-05-29T20:34:13.614Z,23.11
2018-05-29T20:36:42.384Z,22.95
2018-05-29T20:39:10.866Z,22.82
2018-05-29T20:41:39.397Z,22.70
2018-05-29T20:44:07.961Z,22.61
2018-05-29T20:46:37.273Z,22.38
2018-05-29T20:49:06.586Z,22.39
2018-05-29T20:51:35.451Z,22.46
2018-05-29T20:54:04.050Z,22.46
2018-05-29T20:56:33.314Z,22.39
2018-05-29T20:59:02.018Z,22.28
2018-05-29T21:01:30.599Z,22.03
2018-05-29T21:03:59.098Z,22.19
2018-05-29T21:06:28.559Z,22.34
2018-05-29T21:08:57.085Z,22.35
2018-05-29T21:11:26.354Z,22.08
2018-05-29T21:13:54.919Z,21.90
2018-05-29T21:16:23.422Z,22.01
2018-05-29T21:18:51.930Z,22.07
2018-05-29T21:21:21.517Z,21.81
2018-05-29T21:23:50.014Z,21.68
2018-05-29T21:26:19.282Z,21.80
2018-05-29T21:28:48.598Z,21.97
2018-05-29T21:31:17.090Z,21.95
2018-05-29T21:33:46.350Z,21.91
2018-05-29T21:36:15.065Z,21.94
2018-05-29T21:38:43.572Z,22.03
2018-05-29T21:41:12.858Z,22.15
2018-05-29T21:43:42.181Z,22.15
2018-05-29T21:46:10.714Z,22.06
2018-05-29T21:48:39.234Z,22.10
2018-05-29T21:51:08.921Z,22.14
2018-05-29T21:53:37.466Z,22.26
2018-05-29T21:56:05.981Z,22.23
2018-05-29T21:58:34.529Z,22.17
2018-05-29T22:01:03.661Z,22.07
2018-05-29T22:03:32.170Z,22.31
2018-05-29T22:06:00.725Z,22.35
2018-05-29T22:08:29.230Z,22.41
2018-05-29T22:10:57.725Z,22.36
2018-05-29T22:13:26.582Z,22.30
2018-05-29T22:15:55.845Z,22.22
2018-05-29T22:18:24.373Z,22.49
2018-05-29T22:20:54.067Z,22.55
2018-05-29T22:23:22.602Z,22.55
2018-05-29T22:25:51.097Z,22.57
2018-05-29T22:28:19.926Z,22.52
2018-05-29T22:30:49.185Z,22.47
2018-05-29T22:33:17.690Z,22.52
2018-05-29T22:35:46.494Z,22.31
2018-05-29T22:38:15.876Z,22.46
2018-05-29T22:40:44.374Z,22.37
2018-05-29T22:43:13.058Z,22.36
2018-05-29T22:45:42.194Z,22.30
2018-05-29T22:48:10.691Z,22.33
2018-05-29T22:50:39.249Z,22.34
2018-05-29T22:53:07.753Z,22.35
2018-05-29T22:55:36.256Z,22.28
2018-05-29T22:58:04.806Z,22.19
2018-05-29T23:00:33.345Z,22.12
2018-05-29T23:03:01.850Z,22.10
2018-05-29T23:05:31.330Z,22.04
2018-05-29T23:07:59.838Z,22.00
2018-05-29T23:10:28.345Z,21.98
2018-05-29T23:12:56.897Z,22.03
2018-05-29T23:15:26.158Z,22.12
2018-05-29T23:17:54.662Z,22.18
2018-05-29T23:20:23.441Z,22.34
2018-05-29T23:22:51.946Z,22.31
2018-05-29T23:25:21.211Z,22.29
2018-05-29T23:27:49.763Z,22.19
2018-05-29T23:30:18.257Z,22.13
2018-05-29T23:32:46.761Z,22.10
2018-05-29T23:35:15.454Z,22.03
2018-05-29T23:37:43.950Z,21.92
2018-05-29T23:40:13.218Z,21.90
2018-05-29T23:42:41.761Z,21.82
2018-05-29T23:45:10.263Z,21.78
2018-05-29T23:47:38.762Z,21.73
2018-05-29T23:50:07.745Z,21.73
2018-05-29T23:52:36.250Z,21.85
2018-05-29T23:55:04.810Z,21.80
2018-05-29T23:57:33.838Z,21.68
